La Plata, New Mexico
Current Conditions -  °F | °C
As of 4:53 AM on Sunday 25 Jan 2015 (Local Time) from KFMN Reporting Station
Clear Clear  
Wind Chill: 20°   Ceiling: Unl
Heat Index: 20°   Visibility: 10mi
Dew Point: 15°   Wind: 3mph
Humidity: 81%   Direction: 40°NE
Pressure: 30.28"   Gusts: NA
Location:  36.93°N, 108.19°W
Report Text: KFMN 251153Z AUTO 04003KT 10SM CLR M07/M09 A3028 RMK AO2 SLP276 T10671094 11033 21072 58001
Loading
Personal Weather Stations






























Interactive Weather Map New forecast layout! Learn more

10-Day Weather Forecast

Advertisements
Track Severe Weather on mobile